sensor_id;sensor_type;location;lat;lon;timestamp;P1;durP1;ratioP1;P2;durP2;ratioP2
12892;SDS011;6514;48.606;9.222;2024-02-15T00:02:17;1.20;;;0.93;;
12892;SDS011;6514;48.606;9.222;2024-02-15T00:04:43;2.53;;;1.30;;
12892;SDS011;6514;48.606;9.222;2024-02-15T00:07:10;1.10;;;0.90;;
12892;SDS011;6514;48.606;9.222;2024-02-15T00:09:39;1.97;;;1.03;;
12892;SDS011;6514;48.606;9.222;2024-02-15T00:12:06;3.13;;;1.10;;
12892;SDS011;6514;48.606;9.222;2024-02-15T00:14:33;1.80;;;1.23;;
12892;SDS011;6514;48.606;9.222;2024-02-15T00:17:03;2.00;;;1.17;;
12892;SDS011;6514;48.606;9.222;2024-02-15T00:19:30;2.90;;;1.47;;
12892;SDS011;6514;48.606;9.222;2024-02-15T00:21:57;2.67;;;1.30;;
12892;SDS011;6514;48.606;9.222;2024-02-15T00:24:24;2.17;;;1.77;;
12892;SDS011;6514;48.606;9.222;2024-02-15T00:26:53;2.50;;;1.60;;
12892;SDS011;6514;48.606;9.222;2024-02-15T00:29:21;3.80;;;1.57;;
12892;SDS011;6514;48.606;9.222;2024-02-15T00:31:47;1.50;;;1.40;;
12892;SDS011;6514;48.606;9.222;2024-02-15T00:34:15;1.73;;;1.20;;
12892;SDS011;6514;48.606;9.222;2024-02-15T00:36:42;1.10;;;1.00;;
12892;SDS011;6514;48.606;9.222;2024-02-15T00:39:10;2.07;;;1.27;;
12892;SDS011;6514;48.606;9.222;2024-02-15T00:41:38;1.57;;;1.10;;
12892;SDS011;6514;48.606;9.222;2024-02-15T00:44:08;2.27;;;1.10;;
12892;SDS011;6514;48.606;9.222;2024-02-15T00:46:35;2.10;;;1.10;;
12892;SDS011;6514;48.606;9.222;2024-02-15T00:49:05;1.33;;;1.10;;
12892;SDS011;6514;48.606;9.222;2024-02-15T00:51:33;1.60;;;1.20;;
12892;SDS011;6514;48.606;9.222;2024-02-15T00:54:00;2.97;;;1.07;;
12892;SDS011;6514;48.606;9.222;2024-02-15T00:56:28;2.60;;;1.33;;
12892;SDS011;6514;48.606;9.222;2024-02-15T00:58:58;1.83;;;1.30;;
12892;SDS011;6514;48.606;9.222;2024-02-15T01:01:28;2.10;;;1.13;;
12892;SDS011;6514;48.606;9.222;2024-02-15T01:03:55;3.60;;;1.67;;
12892;SDS011;6514;48.606;9.222;2024-02-15T01:06:22;2.23;;;1.90;;
12892;SDS011;6514;48.606;9.222;2024-02-15T01:08:49;3.67;;;2.20;;
12892;SDS011;6514;48.606;9.222;2024-02-15T01:11:16;3.83;;;2.70;;
12892;SDS011;6514;48.606;9.222;2024-02-15T01:13:43;3.33;;;2.10;;
12892;SDS011;6514;48.606;9.222;2024-02-15T01:16:10;3.70;;;2.10;;
12892;SDS011;6514;48.606;9.222;2024-02-15T01:18:39;3.20;;;2.07;;
12892;SDS011;6514;48.606;9.222;2024-02-15T01:21:06;2.37;;;1.73;;
12892;SDS011;6514;48.606;9.222;2024-02-15T01:23:32;2.10;;;1.90;;
12892;SDS011;6514;48.606;9.222;2024-02-15T01:26:01;3.07;;;2.07;;
12892;SDS011;6514;48.606;9.222;2024-02-15T01:28:30;2.63;;;1.63;;
12892;SDS011;6514;48.606;9.222;2024-02-15T01:30:57;2.20;;;1.47;;
12892;SDS011;6514;48.606;9.222;2024-02-15T01:33:24;1.40;;;1.30;;
12892;SDS011;6514;48.606;9.222;2024-02-15T01:35:53;1.77;;;1.33;;
12892;SDS011;6514;48.606;9.222;2024-02-15T01:38:21;1.57;;;1.33;;
12892;SDS011;6514;48.606;9.222;2024-02-15T01:40:48;1.90;;;1.50;;
12892;SDS011;6514;48.606;9.222;2024-02-15T01:43:15;1.60;;;1.50;;
12892;SDS011;6514;48.606;9.222;2024-02-15T01:45:41;3.07;;;1.60;;
12892;SDS011;6514;48.606;9.222;2024-02-15T01:48:09;2.03;;;1.67;;
12892;SDS011;6514;48.606;9.222;2024-02-15T01:50:36;2.10;;;1.67;;
12892;SDS011;6514;48.606;9.222;2024-02-15T01:53:05;2.97;;;1.40;;
12892;SDS011;6514;48.606;9.222;2024-02-15T01:55:34;2.17;;;1.50;;
12892;SDS011;6514;48.606;9.222;2024-02-15T01:58:01;2.53;;;1.37;;
12892;SDS011;6514;48.606;9.222;2024-02-15T02:00:29;1.93;;;1.40;;
12892;SDS011;6514;48.606;9.222;2024-02-15T02:02:57;1.50;;;1.40;;
12892;SDS011;6514;48.606;9.222;2024-02-15T02:05:27;1.73;;;1.63;;
12892;SDS011;6514;48.606;9.222;2024-02-15T02:07:56;2.57;;;1.40;;
12892;SDS011;6514;48.606;9.222;2024-02-15T02:10:27;1.60;;;1.30;;
12892;SDS011;6514;48.606;9.222;2024-02-15T02:12:57;4.83;;;1.27;;
12892;SDS011;6514;48.606;9.222;2024-02-15T02:15:26;2.03;;;1.10;;
12892;SDS011;6514;48.606;9.222;2024-02-15T02:17:53;1.60;;;1.10;;
12892;SDS011;6514;48.606;9.222;2024-02-15T02:20:20;1.50;;;1.20;;
12892;SDS011;6514;48.606;9.222;2024-02-15T02:22:48;2.43;;;1.30;;
12892;SDS011;6514;48.606;9.222;2024-02-15T02:25:22;1.30;;;1.20;;
12892;SDS011;6514;48.606;9.222;2024-02-15T02:27:51;1.23;;;1.13;;
12892;SDS011;6514;48.606;9.222;2024-02-15T02:30:19;1.53;;;1.13;;
12892;SDS011;6514;48.606;9.222;2024-02-15T02:32:47;1.70;;;1.03;;
12892;SDS011;6514;48.606;9.222;2024-02-15T02:35:14;3.53;;;1.13;;
12892;SDS011;6514;48.606;9.222;2024-02-15T02:37:42;2.87;;;1.00;;
12892;SDS011;6514;48.606;9.222;2024-02-15T02:40:09;1.53;;;1.10;;
12892;SDS011;6514;48.606;9.222;2024-02-15T02:42:47;1.27;;;1.00;;
12892;SDS011;6514;48.606;9.222;2024-02-15T02:45:15;1.33;;;1.20;;
12892;SDS011;6514;48.606;9.222;2024-02-15T02:47:41;1.40;;;1.23;;
12892;SDS011;6514;48.606;9.222;2024-02-15T02:50:08;1.83;;;1.20;;
12892;SDS011;6514;48.606;9.222;2024-02-15T02:52:36;3.10;;;1.13;;
12892;SDS011;6514;48.606;9.222;2024-02-15T02:55:04;1.80;;;1.13;;
12892;SDS011;6514;48.606;9.222;2024-02-15T02:57:33;1.70;;;1.10;;
12892;SDS011;6514;48.606;9.222;2024-02-15T03:00:04;1.87;;;1.50;;
12892;SDS011;6514;48.606;9.222;2024-02-15T03:02:35;1.93;;;1.10;;
12892;SDS011;6514;48.606;9.222;2024-02-15T03:05:03;2.27;;;1.43;;
12892;SDS011;6514;48.606;9.222;2024-02-15T03:07:32;3.10;;;1.40;;
12892;SDS011;6514;48.606;9.222;2024-02-15T03:10:00;1.83;;;1.37;;
12892;SDS011;6514;48.606;9.222;2024-02-15T03:12:27;2.80;;;1.10;;
12892;SDS011;6514;48.606;9.222;2024-02-15T03:14:57;3.47;;;1.60;;
12892;SDS011;6514;48.606;9.222;2024-02-15T03:17:25;1.57;;;1.10;;
12892;SDS011;6514;48.606;9.222;2024-02-15T03:19:52;1.33;;;1.20;;
12892;SDS011;6514;48.606;9.222;2024-02-15T03:22:20;1.83;;;1.30;;
12892;SDS011;6514;48.606;9.222;2024-02-15T03:24:50;1.67;;;1.30;;
12892;SDS011;6514;48.606;9.222;2024-02-15T03:27:17;1.60;;;1.37;;
12892;SDS011;6514;48.606;9.222;2024-02-15T03:29:48;3.30;;;1.40;;
12892;SDS011;6514;48.606;9.222;2024-02-15T03:32:16;4.00;;;1.60;;
12892;SDS011;6514;48.606;9.222;2024-02-15T03:34:44;1.93;;;1.70;;
12892;SDS011;6514;48.606;9.222;2024-02-15T03:37:11;2.57;;;1.90;;
12892;SDS011;6514;48.606;9.222;2024-02-15T03:39:38;2.77;;;1.83;;
12892;SDS011;6514;48.606;9.222;2024-02-15T03:42:05;2.63;;;1.80;;
12892;SDS011;6514;48.606;9.222;2024-02-15T03:44:32;4.07;;;2.03;;
12892;SDS011;6514;48.606;9.222;2024-02-15T03:46:59;3.57;;;1.80;;
12892;SDS011;6514;48.606;9.222;2024-02-15T03:49:26;2.97;;;1.70;;
12892;SDS011;6514;48.606;9.222;2024-02-15T03:51:54;3.30;;;2.03;;
12892;SDS011;6514;48.606;9.222;2024-02-15T03:54:24;2.53;;;2.33;;
12892;SDS011;6514;48.606;9.222;2024-02-15T03:56:51;1.97;;;1.60;;
12892;SDS011;6514;48.606;9.222;2024-02-15T03:59:19;2.00;;;1.90;;
12892;SDS011;6514;48.606;9.222;2024-02-15T04:01:51;3.83;;;2.00;;
12892;SDS011;6514;48.606;9.222;2024-02-15T04:04:18;3.57;;;2.63;;
12892;SDS011;6514;48.606;9.222;2024-02-15T04:06:47;3.77;;;2.17;;
12892;SDS011;6514;48.606;9.222;2024-02-15T04:09:15;4.17;;;2.50;;
12892;SDS011;6514;48.606;9.222;2024-02-15T04:11:43;3.20;;;2.57;;
12892;SDS011;6514;48.606;9.222;2024-02-15T04:14:12;3.20;;;2.90;;
12892;SDS011;6514;48.606;9.222;2024-02-15T04:16:39;3.00;;;2.70;;
12892;SDS011;6514;48.606;9.222;2024-02-15T04:19:08;6.03;;;3.90;;
12892;SDS011;6514;48.606;9.222;2024-02-15T04:21:36;4.73;;;3.67;;
12892;SDS011;6514;48.606;9.222;2024-02-15T04:24:04;4.80;;;3.67;;
12892;SDS011;6514;48.606;9.222;2024-02-15T04:26:32;3.20;;;2.87;;
12892;SDS011;6514;48.606;9.222;2024-02-15T04:29:01;3.40;;;2.90;;
12892;SDS011;6514;48.606;9.222;2024-02-15T04:31:28;2.93;;;2.60;;
12892;SDS011;6514;48.606;9.222;2024-02-15T04:33:55;5.20;;;3.27;;
12892;SDS011;6514;48.606;9.222;2024-02-15T04:36:22;3.47;;;3.00;;
12892;SDS011;6514;48.606;9.222;2024-02-15T04:38:50;3.50;;;3.00;;
12892;SDS011;6514;48.606;9.222;2024-02-15T04:41:17;5.73;;;2.83;;
12892;SDS011;6514;48.606;9.222;2024-02-15T04:43:49;4.53;;;2.77;;
12892;SDS011;6514;48.606;9.222;2024-02-15T04:46:16;3.87;;;2.97;;
12892;SDS011;6514;48.606;9.222;2024-02-15T04:48:45;4.10;;;3.53;;
12892;SDS011;6514;48.606;9.222;2024-02-15T04:51:14;5.73;;;4.40;;
12892;SDS011;6514;48.606;9.222;2024-02-15T04:53:41;7.33;;;4.90;;
12892;SDS011;6514;48.606;9.222;2024-02-15T04:56:08;5.87;;;4.70;;
12892;SDS011;6514;48.606;9.222;2024-02-15T04:58:39;6.33;;;4.87;;
12892;SDS011;6514;48.606;9.222;2024-02-15T05:01:12;5.83;;;3.50;;
12892;SDS011;6514;48.606;9.222;2024-02-15T05:03:39;5.47;;;3.17;;
12892;SDS011;6514;48.606;9.222;2024-02-15T05:06:07;3.87;;;3.10;;
12892;SDS011;6514;48.606;9.222;2024-02-15T05:08:34;4.50;;;2.83;;
12892;SDS011;6514;48.606;9.222;2024-02-15T05:11:07;4.50;;;3.23;;
12892;SDS011;6514;48.606;9.222;2024-02-15T05:13:39;7.23;;;3.63;;
12892;SDS011;6514;48.606;9.222;2024-02-15T05:16:06;5.60;;;3.67;;
12892;SDS011;6514;48.606;9.222;2024-02-15T05:18:34;6.77;;;4.30;;
12892;SDS011;6514;48.606;9.222;2024-02-15T05:21:02;6.17;;;2.60;;
12892;SDS011;6514;48.606;9.222;2024-02-15T05:23:34;6.03;;;3.90;;
12892;SDS011;6514;48.606;9.222;2024-02-15T05:26:01;14.60;;;7.53;;
12892;SDS011;6514;48.606;9.222;2024-02-15T05:28:28;10.70;;;5.30;;
12892;SDS011;6514;48.606;9.222;2024-02-15T05:31:08;6.43;;;4.33;;
12892;SDS011;6514;48.606;9.222;2024-02-15T05:33:43;6.70;;;4.47;;
12892;SDS011;6514;48.606;9.222;2024-02-15T05:36:12;5.00;;;3.30;;
12892;SDS011;6514;48.606;9.222;2024-02-15T05:38:40;3.83;;;2.37;;
12892;SDS011;6514;48.606;9.222;2024-02-15T05:41:10;2.97;;;2.43;;
12892;SDS011;6514;48.606;9.222;2024-02-15T05:43:38;3.07;;;2.50;;
12892;SDS011;6514;48.606;9.222;2024-02-15T05:46:06;3.47;;;2.50;;
12892;SDS011;6514;48.606;9.222;2024-02-15T05:48:34;6.60;;;4.27;;
12892;SDS011;6514;48.606;9.222;2024-02-15T05:51:03;7.53;;;4.90;;
12892;SDS011;6514;48.606;9.222;2024-02-15T05:53:31;6.50;;;4.37;;
12892;SDS011;6514;48.606;9.222;2024-02-15T05:56:01;7.13;;;4.13;;
12892;SDS011;6514;48.606;9.222;2024-02-15T05:58:29;5.83;;;4.33;;
12892;SDS011;6514;48.606;9.222;2024-02-15T06:00:57;3.20;;;2.60;;
12892;SDS011;6514;48.606;9.222;2024-02-15T06:03:26;4.33;;;3.00;;
12892;SDS011;6514;48.606;9.222;2024-02-15T06:05:53;5.80;;;2.90;;
12892;SDS011;6514;48.606;9.222;2024-02-15T06:08:24;3.07;;;2.60;;
12892;SDS011;6514;48.606;9.222;2024-02-15T06:10:52;2.00;;;1.90;;
12892;SDS011;6514;48.606;9.222;2024-02-15T06:13:19;3.10;;;2.00;;
12892;SDS011;6514;48.606;9.222;2024-02-15T06:15:46;2.57;;;2.37;;
12892;SDS011;6514;48.606;9.222;2024-02-15T06:18:17;2.80;;;2.07;;
12892;SDS011;6514;48.606;9.222;2024-02-15T06:20:47;5.73;;;2.50;;
12892;SDS011;6514;48.606;9.222;2024-02-15T06:23:15;2.93;;;2.30;;
12892;SDS011;6514;48.606;9.222;2024-02-15T06:25:44;5.73;;;2.70;;
12892;SDS011;6514;48.606;9.222;2024-02-15T06:28:12;2.30;;;2.10;;
12892;SDS011;6514;48.606;9.222;2024-02-15T06:30:59;3.87;;;2.30;;
12892;SDS011;6514;48.606;9.222;2024-02-15T06:33:43;3.30;;;2.33;;
12892;SDS011;6514;48.606;9.222;2024-02-15T06:36:27;3.63;;;2.90;;
12892;SDS011;6514;48.606;9.222;2024-02-15T06:39:12;4.77;;;3.27;;
12892;SDS011;6514;48.606;9.222;2024-02-15T06:41:57;4.80;;;3.50;;
12892;SDS011;6514;48.606;9.222;2024-02-15T06:44:26;3.60;;;3.30;;
12892;SDS011;6514;48.606;9.222;2024-02-15T06:46:53;5.00;;;3.17;;
12892;SDS011;6514;48.606;9.222;2024-02-15T06:49:20;4.33;;;3.17;;
12892;SDS011;6514;48.606;9.222;2024-02-15T06:51:47;4.93;;;3.30;;
12892;SDS011;6514;48.606;9.222;2024-02-15T06:54:14;4.77;;;3.47;;
12892;SDS011;6514;48.606;9.222;2024-02-15T06:56:42;4.40;;;3.50;;
12892;SDS011;6514;48.606;9.222;2024-02-15T06:59:12;5.63;;;3.67;;
12892;SDS011;6514;48.606;9.222;2024-02-15T07:01:41;4.73;;;3.40;;
12892;SDS011;6514;48.606;9.222;2024-02-15T07:04:11;5.77;;;4.03;;
12892;SDS011;6514;48.606;9.222;2024-02-15T07:06:42;19.83;;;10.77;;
12892;SDS011;6514;48.606;9.222;2024-02-15T07:09:13;10.40;;;7.20;;
12892;SDS011;6514;48.606;9.222;2024-02-15T07:11:42;9.80;;;6.27;;
12892;SDS011;6514;48.606;9.222;2024-02-15T07:14:12;13.17;;;8.00;;
12892;SDS011;6514;48.606;9.222;2024-02-15T07:16:43;17.43;;;9.57;;
12892;SDS011;6514;48.606;9.222;2024-02-15T07:19:11;11.17;;;6.93;;
12892;SDS011;6514;48.606;9.222;2024-02-15T07:21:38;8.83;;;5.83;;
12892;SDS011;6514;48.606;9.222;2024-02-15T07:24:07;9.53;;;5.40;;
12892;SDS011;6514;48.606;9.222;2024-02-15T07:26:34;8.43;;;5.40;;
12892;SDS011;6514;48.606;9.222;2024-02-15T07:29:01;8.37;;;4.97;;
12892;SDS011;6514;48.606;9.222;2024-02-15T07:31:32;7.60;;;3.80;;
12892;SDS011;6514;48.606;9.222;2024-02-15T07:33:59;6.00;;;4.50;;
12892;SDS011;6514;48.606;9.222;2024-02-15T07:36:26;8.30;;;5.43;;
12892;SDS011;6514;48.606;9.222;2024-02-15T07:38:54;6.83;;;5.30;;
12892;SDS011;6514;48.606;9.222;2024-02-15T07:41:25;6.60;;;3.60;;
12892;SDS011;6514;48.606;9.222;2024-02-15T07:43:53;2.97;;;2.63;;
12892;SDS011;6514;48.606;9.222;2024-02-15T07:46:20;2.93;;;2.60;;
12892;SDS011;6514;48.606;9.222;2024-02-15T07:48:50;4.80;;;3.13;;
12892;SDS011;6514;48.606;9.222;2024-02-15T07:51:18;4.40;;;3.10;;
12892;SDS011;6514;48.606;9.222;2024-02-15T07:53:46;4.37;;;3.17;;
12892;SDS011;6514;48.606;9.222;2024-02-15T07:56:15;5.30;;;2.97;;
12892;SDS011;6514;48.606;9.222;2024-02-15T07:58:44;4.33;;;2.97;;
12892;SDS011;6514;48.606;9.222;2024-02-15T08:01:13;4.00;;;2.97;;
12892;SDS011;6514;48.606;9.222;2024-02-15T08:03:41;3.17;;;2.60;;
12892;SDS011;6514;48.606;9.222;2024-02-15T08:06:11;3.83;;;2.53;;
12892;SDS011;6514;48.606;9.222;2024-02-15T08:08:40;4.67;;;2.73;;
12892;SDS011;6514;48.606;9.222;2024-02-15T08:11:07;3.30;;;2.70;;
12892;SDS011;6514;48.606;9.222;2024-02-15T08:13:40;3.40;;;2.37;;
12892;SDS011;6514;48.606;9.222;2024-02-15T08:16:09;2.90;;;2.20;;
12892;SDS011;6514;48.606;9.222;2024-02-15T08:18:37;3.20;;;2.40;;
12892;SDS011;6514;48.606;9.222;2024-02-15T08:21:04;3.33;;;2.47;;
12892;SDS011;6514;48.606;9.222;2024-02-15T08:23:33;3.27;;;2.20;;
12892;SDS011;6514;48.606;9.222;2024-02-15T08:26:00;2.90;;;2.23;;
12892;SDS011;6514;48.606;9.222;2024-02-15T08:28:27;3.60;;;2.33;;
12892;SDS011;6514;48.606;9.222;2024-02-15T08:30:54;3.37;;;2.37;;
12892;SDS011;6514;48.606;9.222;2024-02-15T08:33:22;2.60;;;2.13;;
12892;SDS011;6514;48.606;9.222;2024-02-15T08:35:49;3.60;;;2.00;;
12892;SDS011;6514;48.606;9.222;2024-02-15T08:38:20;3.33;;;1.90;;
12892;SDS011;6514;48.606;9.222;2024-02-15T08:40:48;3.43;;;2.50;;
12892;SDS011;6514;48.606;9.222;2024-02-15T08:43:16;2.73;;;2.40;;
12892;SDS011;6514;48.606;9.222;2024-02-15T08:45:43;3.00;;;2.53;;
12892;SDS011;6514;48.606;9.222;2024-02-15T08:48:11;2.63;;;2.40;;
12892;SDS011;6514;48.606;9.222;2024-02-15T08:50:38;3.87;;;2.10;;
12892;SDS011;6514;48.606;9.222;2024-02-15T08:53:06;5.60;;;2.20;;
12892;SDS011;6514;48.606;9.222;2024-02-15T08:55:33;2.63;;;2.23;;
12892;SDS011;6514;48.606;9.222;2024-02-15T08:58:02;1.73;;;1.63;;
12892;SDS011;6514;48.606;9.222;2024-02-15T09:00:30;1.77;;;1.67;;
12892;SDS011;6514;48.606;9.222;2024-02-15T09:02:57;4.33;;;2.20;;
12892;SDS011;6514;48.606;9.222;2024-02-15T09:05:24;2.57;;;1.87;;
12892;SDS011;6514;48.606;9.222;2024-02-15T09:07:51;2.27;;;2.07;;
12892;SDS011;6514;48.606;9.222;2024-02-15T09:10:18;2.93;;;2.10;;
12892;SDS011;6514;48.606;9.222;2024-02-15T09:12:47;3.17;;;2.00;;
12892;SDS011;6514;48.606;9.222;2024-02-15T09:15:16;3.90;;;1.47;;
12892;SDS011;6514;48.606;9.222;2024-02-15T09:17:43;3.23;;;2.07;;
12892;SDS011;6514;48.606;9.222;2024-02-15T09:20:11;3.00;;;1.90;;
12892;SDS011;6514;48.606;9.222;2024-02-15T09:22:40;3.17;;;1.80;;
12892;SDS011;6514;48.606;9.222;2024-02-15T09:25:08;3.97;;;1.80;;
12892;SDS011;6514;48.606;9.222;2024-02-15T09:27:38;1.97;;;1.67;;
12892;SDS011;6514;48.606;9.222;2024-02-15T09:30:05;2.83;;;1.57;;
12892;SDS011;6514;48.606;9.222;2024-02-15T09:32:36;2.87;;;2.00;;
12892;SDS011;6514;48.606;9.222;2024-02-15T09:35:04;3.17;;;1.93;;
12892;SDS011;6514;48.606;9.222;2024-02-15T09:37:32;3.93;;;1.93;;
12892;SDS011;6514;48.606;9.222;2024-02-15T09:39:59;3.27;;;1.83;;
12892;SDS011;6514;48.606;9.222;2024-02-15T09:42:31;3.27;;;1.50;;
12892;SDS011;6514;48.606;9.222;2024-02-15T09:44:59;2.70;;;1.70;;
12892;SDS011;6514;48.606;9.222;2024-02-15T09:47:28;2.50;;;1.70;;
12892;SDS011;6514;48.606;9.222;2024-02-15T09:50:04;2.17;;;1.90;;
12892;SDS011;6514;48.606;9.222;2024-02-15T09:52:32;3.00;;;1.67;;
12892;SDS011;6514;48.606;9.222;2024-02-15T09:55:02;2.93;;;1.37;;
12892;SDS011;6514;48.606;9.222;2024-02-15T09:57:29;2.23;;;1.67;;
12892;SDS011;6514;48.606;9.222;2024-02-15T09:59:58;1.70;;;1.30;;
12892;SDS011;6514;48.606;9.222;2024-02-15T10:02:25;5.03;;;1.30;;
12892;SDS011;6514;48.606;9.222;2024-02-15T10:04:53;3.37;;;1.40;;
12892;SDS011;6514;48.606;9.222;2024-02-15T10:07:24;2.57;;;0.87;;
12892;SDS011;6514;48.606;9.222;2024-02-15T10:09:52;3.60;;;1.27;;
12892;SDS011;6514;48.606;9.222;2024-02-15T10:12:19;1.73;;;1.03;;
12892;SDS011;6514;48.606;9.222;2024-02-15T10:14:50;1.93;;;0.93;;
12892;SDS011;6514;48.606;9.222;2024-02-15T10:17:18;1.20;;;1.10;;
12892;SDS011;6514;48.606;9.222;2024-02-15T10:19:50;3.80;;;1.70;;
12892;SDS011;6514;48.606;9.222;2024-02-15T10:22:31;2.27;;;1.13;;
12892;SDS011;6514;48.606;9.222;2024-02-15T10:25:10;2.40;;;1.40;;
12892;SDS011;6514;48.606;9.222;2024-02-15T10:27:38;1.87;;;1.10;;
12892;SDS011;6514;48.606;9.222;2024-02-15T10:30:15;1.03;;;0.87;;
12892;SDS011;6514;48.606;9.222;2024-02-15T10:32:43;2.13;;;1.03;;
12892;SDS011;6514;48.606;9.222;2024-02-15T10:35:10;1.50;;;0.90;;
12892;SDS011;6514;48.606;9.222;2024-02-15T10:37:47;1.50;;;1.07;;
12892;SDS011;6514;48.606;9.222;2024-02-15T10:40:17;2.60;;;1.03;;
12892;SDS011;6514;48.606;9.222;2024-02-15T10:42:45;1.53;;;1.27;;
12892;SDS011;6514;48.606;9.222;2024-02-15T10:45:14;2.13;;;1.50;;
12892;SDS011;6514;48.606;9.222;2024-02-15T10:47:43;1.83;;;1.07;;
12892;SDS011;6514;48.606;9.222;2024-02-15T10:50:10;1.10;;;1.00;;
12892;SDS011;6514;48.606;9.222;2024-02-15T10:52:40;2.33;;;1.10;;
12892;SDS011;6514;48.606;9.222;2024-02-15T10:55:17;1.67;;;1.00;;
12892;SDS011;6514;48.606;9.222;2024-02-15T10:57:48;1.17;;;1.00;;
12892;SDS011;6514;48.606;9.222;2024-02-15T11:00:19;0.97;;;0.87;;
12892;SDS011;6514;48.606;9.222;2024-02-15T11:02:54;1.30;;;1.10;;
12892;SDS011;6514;48.606;9.222;2024-02-15T11:05:31;2.87;;;1.17;;
12892;SDS011;6514;48.606;9.222;2024-02-15T11:08:01;1.20;;;1.10;;
12892;SDS011;6514;48.606;9.222;2024-02-15T11:10:33;2.03;;;0.97;;
12892;SDS011;6514;48.606;9.222;2024-02-15T11:13:01;2.00;;;0.80;;
12892;SDS011;6514;48.606;9.222;2024-02-15T11:15:41;1.00;;;0.90;;
12892;SDS011;6514;48.606;9.222;2024-02-15T11:18:10;1.73;;;0.90;;
12892;SDS011;6514;48.606;9.222;2024-02-15T11:20:47;1.30;;;0.90;;
12892;SDS011;6514;48.606;9.222;2024-02-15T11:23:24;1.47;;;0.90;;
12892;SDS011;6514;48.606;9.222;2024-02-15T11:25:57;1.50;;;0.90;;
12892;SDS011;6514;48.606;9.222;2024-02-15T11:28:43;2.27;;;0.90;;
12892;SDS011;6514;48.606;9.222;2024-02-15T11:46:21;1.50;;;0.77;;
12892;SDS011;6514;48.606;9.222;2024-02-15T11:48:51;1.70;;;0.90;;
12892;SDS011;6514;48.606;9.222;2024-02-15T11:51:25;1.70;;;1.00;;
12892;SDS011;6514;48.606;9.222;2024-02-15T11:54:05;2.27;;;0.80;;
12892;SDS011;6514;48.606;9.222;2024-02-15T11:56:53;2.53;;;0.93;;
12892;SDS011;6514;48.606;9.222;2024-02-15T11:59:30;1.40;;;0.90;;
12892;SDS011;6514;48.606;9.222;2024-02-15T12:02:08;1.40;;;0.80;;
12892;SDS011;6514;48.606;9.222;2024-02-15T12:04:52;1.00;;;0.80;;
12892;SDS011;6514;48.606;9.222;2024-02-15T12:07:37;1.80;;;1.07;;
12892;SDS011;6514;48.606;9.222;2024-02-15T12:10:21;2.83;;;1.00;;
12892;SDS011;6514;48.606;9.222;2024-02-15T12:13:07;1.53;;;1.00;;
12892;SDS011;6514;48.606;9.222;2024-02-15T12:15:56;2.30;;;1.47;;
12892;SDS011;6514;48.606;9.222;2024-02-15T12:18:41;1.33;;;0.70;;
12892;SDS011;6514;48.606;9.222;2024-02-15T12:21:12;1.90;;;0.83;;
12892;SDS011;6514;48.606;9.222;2024-02-15T12:23:42;1.50;;;0.80;;
12892;SDS011;6514;48.606;9.222;2024-02-15T12:26:10;2.23;;;0.80;;
12892;SDS011;6514;48.606;9.222;2024-02-15T12:28:41;2.23;;;0.80;;
12892;SDS011;6514;48.606;9.222;2024-02-15T12:31:09;3.33;;;1.07;;
12892;SDS011;6514;48.606;9.222;2024-02-15T12:33:38;2.40;;;1.23;;
12892;SDS011;6514;48.606;9.222;2024-02-15T12:36:05;2.63;;;1.03;;
12892;SDS011;6514;48.606;9.222;2024-02-15T12:38:33;1.20;;;0.90;;
12892;SDS011;6514;48.606;9.222;2024-02-15T12:41:02;2.30;;;1.37;;
12892;SDS011;6514;48.606;9.222;2024-02-15T12:43:30;1.37;;;0.80;;
12892;SDS011;6514;48.606;9.222;2024-02-15T12:45:59;1.37;;;1.20;;
12892;SDS011;6514;48.606;9.222;2024-02-15T12:48:26;1.17;;;0.90;;
12892;SDS011;6514;48.606;9.222;2024-02-15T12:50:53;1.53;;;1.00;;
12892;SDS011;6514;48.606;9.222;2024-02-15T12:53:21;1.23;;;0.90;;
12892;SDS011;6514;48.606;9.222;2024-02-15T12:55:52;2.33;;;0.70;;
12892;SDS011;6514;48.606;9.222;2024-02-15T12:58:21;1.20;;;0.90;;
12892;SDS011;6514;48.606;9.222;2024-02-15T13:00:49;1.87;;;0.80;;
12892;SDS011;6514;48.606;9.222;2024-02-15T13:03:22;2.43;;;1.20;;
12892;SDS011;6514;48.606;9.222;2024-02-15T13:05:49;1.50;;;0.90;;
12892;SDS011;6514;48.606;9.222;2024-02-15T13:08:16;1.70;;;0.80;;
12892;SDS011;6514;48.606;9.222;2024-02-15T13:10:44;1.83;;;1.03;;
12892;SDS011;6514;48.606;9.222;2024-02-15T13:13:12;1.43;;;1.00;;
12892;SDS011;6514;48.606;9.222;2024-02-15T13:15:41;1.43;;;1.00;;
12892;SDS011;6514;48.606;9.222;2024-02-15T13:18:08;1.33;;;0.93;;
12892;SDS011;6514;48.606;9.222;2024-02-15T13:20:37;3.13;;;1.30;;
12892;SDS011;6514;48.606;9.222;2024-02-15T13:23:04;2.27;;;1.33;;
12892;SDS011;6514;48.606;9.222;2024-02-15T13:25:34;2.03;;;1.00;;
12892;SDS011;6514;48.606;9.222;2024-02-15T13:28:04;1.43;;;0.80;;
12892;SDS011;6514;48.606;9.222;2024-02-15T13:30:34;2.43;;;1.17;;
12892;SDS011;6514;48.606;9.222;2024-02-15T13:33:01;3.47;;;1.50;;
12892;SDS011;6514;48.606;9.222;2024-02-15T13:35:28;2.67;;;1.20;;
12892;SDS011;6514;48.606;9.222;2024-02-15T13:37:56;1.43;;;1.13;;
12892;SDS011;6514;48.606;9.222;2024-02-15T13:40:24;2.30;;;1.33;;
12892;SDS011;6514;48.606;9.222;2024-02-15T13:42:54;1.33;;;0.90;;
12892;SDS011;6514;48.606;9.222;2024-02-15T13:45:24;2.70;;;1.30;;
12892;SDS011;6514;48.606;9.222;2024-02-15T13:47:57;1.50;;;0.90;;
12892;SDS011;6514;48.606;9.222;2024-02-15T13:50:25;1.83;;;1.10;;
12892;SDS011;6514;48.606;9.222;2024-02-15T13:52:54;2.03;;;1.07;;
12892;SDS011;6514;48.606;9.222;2024-02-15T13:55:23;3.80;;;1.03;;
12892;SDS011;6514;48.606;9.222;2024-02-15T13:57:51;3.83;;;1.13;;
12892;SDS011;6514;48.606;9.222;2024-02-15T14:00:18;1.97;;;1.40;;
12892;SDS011;6514;48.606;9.222;2024-02-15T14:02:55;0.73;;;0.70;;
12892;SDS011;6514;48.606;9.222;2024-02-15T14:05:23;3.67;;;0.93;;
12892;SDS011;6514;48.606;9.222;2024-02-15T14:07:54;2.60;;;1.30;;
12892;SDS011;6514;48.606;9.222;2024-02-15T14:10:24;1.50;;;1.00;;
12892;SDS011;6514;48.606;9.222;2024-02-15T14:12:52;2.93;;;1.10;;
12892;SDS011;6514;48.606;9.222;2024-02-15T14:15:23;2.13;;;1.17;;
12892;SDS011;6514;48.606;9.222;2024-02-15T14:17:51;1.67;;;1.00;;
12892;SDS011;6514;48.606;9.222;2024-02-15T14:20:18;1.73;;;1.20;;
12892;SDS011;6514;48.606;9.222;2024-02-15T14:22:46;3.90;;;1.07;;
12892;SDS011;6514;48.606;9.222;2024-02-15T14:25:22;1.53;;;1.27;;
12892;SDS011;6514;48.606;9.222;2024-02-15T14:27:49;2.97;;;1.63;;
12892;SDS011;6514;48.606;9.222;2024-02-15T14:30:15;1.87;;;1.17;;
12892;SDS011;6514;48.606;9.222;2024-02-15T14:33:00;1.73;;;1.27;;
12892;SDS011;6514;48.606;9.222;2024-02-15T14:35:28;4.40;;;1.13;;
12892;SDS011;6514;48.606;9.222;2024-02-15T14:37:59;1.70;;;1.10;;
12892;SDS011;6514;48.606;9.222;2024-02-15T14:40:32;2.57;;;1.60;;
12892;SDS011;6514;48.606;9.222;2024-02-15T14:43:00;1.90;;;0.90;;
12892;SDS011;6514;48.606;9.222;2024-02-15T14:45:27;4.97;;;1.20;;
12892;SDS011;6514;48.606;9.222;2024-02-15T14:47:55;1.77;;;1.13;;
12892;SDS011;6514;48.606;9.222;2024-02-15T14:50:22;3.23;;;1.30;;
12892;SDS011;6514;48.606;9.222;2024-02-15T14:52:49;1.77;;;0.90;;
12892;SDS011;6514;48.606;9.222;2024-02-15T14:55:18;1.60;;;1.00;;
12892;SDS011;6514;48.606;9.222;2024-02-15T14:57:47;4.03;;;1.33;;
12892;SDS011;6514;48.606;9.222;2024-02-15T15:00:14;1.57;;;1.00;;
12892;SDS011;6514;48.606;9.222;2024-02-15T15:02:43;3.77;;;1.10;;
12892;SDS011;6514;48.606;9.222;2024-02-15T15:05:11;2.93;;;1.00;;
12892;SDS011;6514;48.606;9.222;2024-02-15T15:07:57;1.57;;;0.87;;
12892;SDS011;6514;48.606;9.222;2024-02-15T15:10:44;3.47;;;1.13;;
12892;SDS011;6514;48.606;9.222;2024-02-15T15:13:31;3.03;;;1.30;;
12892;SDS011;6514;48.606;9.222;2024-02-15T15:15:58;2.50;;;1.00;;
12892;SDS011;6514;48.606;9.222;2024-02-15T15:18:25;1.60;;;0.90;;
12892;SDS011;6514;48.606;9.222;2024-02-15T15:20:52;1.40;;;0.93;;
12892;SDS011;6514;48.606;9.222;2024-02-15T15:23:20;3.13;;;1.30;;
12892;SDS011;6514;48.606;9.222;2024-02-15T15:25:47;1.37;;;1.10;;
12892;SDS011;6514;48.606;9.222;2024-02-15T15:28:14;2.40;;;1.10;;
12892;SDS011;6514;48.606;9.222;2024-02-15T15:30:43;2.20;;;1.20;;